Aérodrome :
LOGIN :

S'inscrire | Disclaimer

   EN    FR    IT 

 










Légende :    VFR   VFR Marginal   IFR   IFR Intensif   IFR Très Intensif
Visi : 
Plafond : 
>= 8 km
>= 3000ft
5 à 8 km
1000 à 3000 ft
1500m à 5 km
500 à 1000 ft
800 à 1500m
200 à 500 ft
< 800m
< 200 ft
Symboles :   Orages  Brouillard  Fortes neiges  Fortes précipitations  Vent > 20 kt
SIGMETs :   Divers  Orages  Givrage  Turbulence  Onde Orograph.  Cendres Volcan.







- Altitude de l'aérodrome : 125 ft
- Code IATA : MGL


EDLN - Mönchengladbach

DERNIER METAR :
  • 191750Z 23004KT 150V310 9999 SCT038 SCT090 16/12 Q1019

METARs EXPIRÉS :
  • 191720Z 26007KT 210V300 9999 SCT048 17/11 Q1018
  • 191650Z 25006KT 190V300 9999 FEW035 SCT085 17/12 Q1018
  • 191620Z 24006KT 160V300 9999 FEW028 BKN078 17/12 Q1018
  • 191550Z 25006KT 210V290 9999 SCT028 SCT075 17/12 Q1018
  • 191520Z 25006KT 190V330 9999 SCT030 SCT060 18/12 Q1018

TAF TAF EDLN
Valide du 19 à 18h jusqu'au 20 à 03h UTC


191700Z 1918/2003 23005KT 9999 SCT030
Pas de NOTAMs connus pour ce terrain.



MET'MAP, la Météo Aéronautique d'un coup d'oeil ! - Copyright ORBIFLY Décembre 2007 - Disclaimer

ORBIFLY MET'MAP TEAM :

Programmation & Développement : Alexandra Zaïnal
Conception & Développement : Baudouin d'Aumeries
Co-Programmation & Développement : Marc-Olivier Méhu
Soutien technique & logistique : Manuel Goepfert

Contact : metmap@orbifly.com




SOURCES & CREDITS :

   NOAA